KCMY/CMY METAR and TAF weather

Enter ICAO airport designator
Station Type Date Time Source
KCMY METAR 2022/01/18 07:58 UTC NOAA

KCMY 180758Z AUTO 00000KT 10SM OVC095 M05/M06 A2987 RMK AO2 SLP130 T10471058


Station Type Date Time Source
KCMY Decoded METAR 2022/01/18 07:58 UTC NOAA

Sparta, Sparta / Fort McCoy Airport, WI, United States (KCMY) 43-57-30N 090-44-16W
Jan 18, 2022 - 02:58 AM EST / 2022.01.18 0758 UTC
Wind: Calm:0
Visibility: 10 mile(s):0
Sky conditions: overcast
Temperature: 23.5 F (-4.7 C)
Dew Point: 21.6 F (-5.8 C)
Relative Humidity: 91%
Pressure (altimeter): 29.87 in. Hg (1011 hPa)
ob: KCMY 180758Z AUTO 00000KT 10SM OVC095 M05/M06 A2987 RMK AO2 SLP130 T10471058
cycle: 8

Station Type Date Time Source
KCMY TAF UTC NOAA

Error!

Example: see airport list